createdAt,value
2022-09-02T00:01:24.504Z,0.00
2022-09-02T00:03:55.276Z,0.00
2022-09-02T00:06:22.163Z,0.00
2022-09-02T00:08:49.182Z,0.00
2022-09-02T00:11:20.322Z,0.00
2022-09-02T00:13:50.406Z,0.00
2022-09-02T00:16:17.907Z,0.00
2022-09-02T00:18:45.690Z,0.00
2022-09-02T00:21:14.641Z,0.00
2022-09-02T00:23:44.033Z,0.00
2022-09-02T00:26:12.174Z,0.00
2022-09-02T00:28:40.612Z,0.00
2022-09-02T00:31:16.587Z,0.00
2022-09-02T00:33:43.547Z,0.00
2022-09-02T00:36:11.812Z,0.10
2022-09-02T00:38:38.710Z,0.00
2022-09-02T00:41:09.370Z,0.00
2022-09-02T00:43:47.243Z,0.00
2022-09-02T00:46:17.146Z,0.00
2022-09-02T00:48:56.019Z,0.03
2022-09-02T00:51:23.805Z,0.00
2022-09-02T00:53:51.538Z,0.00
2022-09-02T00:56:28.108Z,0.00
2022-09-02T00:58:56.647Z,0.10
2022-09-02T01:01:23.880Z,0.00
2022-09-02T01:03:51.586Z,0.00
2022-09-02T01:06:22.110Z,0.00
2022-09-02T01:08:59.820Z,0.00
2022-09-02T01:11:38.554Z,0.00
2022-09-02T01:14:06.483Z,0.00
2022-09-02T01:16:42.159Z,0.10
2022-09-02T01:19:17.231Z,0.10
2022-09-02T01:21:49.713Z,0.00
2022-09-02T01:24:19.018Z,0.00
2022-09-02T01:26:46.547Z,0.08
2022-09-02T01:29:13.439Z,0.00
2022-09-02T01:31:40.309Z,0.00
2022-09-02T01:34:07.285Z,0.00
2022-09-02T01:36:38.688Z,0.00
2022-09-02T01:39:05.962Z,0.00
2022-09-02T01:41:33.707Z,0.10
2022-09-02T01:44:01.484Z,0.00
2022-09-02T01:46:28.499Z,0.00
2022-09-02T01:48:55.585Z,0.00
2022-09-02T01:51:22.486Z,0.00
2022-09-02T01:53:49.927Z,0.00
2022-09-02T01:56:16.969Z,0.00
2022-09-02T01:58:43.920Z,0.10
2022-09-02T02:01:10.980Z,0.00
2022-09-02T02:03:39.943Z,0.00
2022-09-02T02:06:15.826Z,0.10
2022-09-02T02:08:44.966Z,0.03
2022-09-02T02:11:12.696Z,0.00
2022-09-02T02:13:39.541Z,0.08
2022-09-02T02:16:06.941Z,0.00
2022-09-02T02:18:34.366Z,0.00
2022-09-02T02:21:01.287Z,0.00
2022-09-02T02:23:28.179Z,0.00
2022-09-02T02:25:55.018Z,0.00
2022-09-02T02:28:21.949Z,0.00
2022-09-02T02:30:49.627Z,0.10
2022-09-02T02:33:16.566Z,0.00
2022-09-02T02:35:43.561Z,0.00
2022-09-02T02:38:10.458Z,0.00
2022-09-02T02:40:41.439Z,0.00
2022-09-02T02:43:08.790Z,0.00
2022-09-02T02:45:36.967Z,0.10
2022-09-02T02:48:03.923Z,0.00
2022-09-02T02:50:32.593Z,0.00
2022-09-02T02:52:59.581Z,0.05
2022-09-02T02:55:26.494Z,0.00
2022-09-02T02:57:53.912Z,0.00
2022-09-02T03:00:28.584Z,0.05
2022-09-02T03:03:14.028Z,0.00
2022-09-02T03:05:41.692Z,0.00
2022-09-02T03:08:10.926Z,0.00
2022-09-02T03:10:39.374Z,0.00
2022-09-02T03:13:06.227Z,0.00
2022-09-02T03:15:33.604Z,0.00
2022-09-02T03:18:00.437Z,0.10
2022-09-02T03:20:27.408Z,0.00
2022-09-02T03:22:59.724Z,0.00
2022-09-02T03:25:33.480Z,0.00
2022-09-02T03:28:05.423Z,0.20
2022-09-02T03:30:35.403Z,0.10
2022-09-02T03:33:04.675Z,0.00
2022-09-02T03:35:37.916Z,0.10
2022-09-02T03:38:05.108Z,0.10
2022-09-02T03:40:31.956Z,0.10
2022-09-02T03:43:00.399Z,0.03
2022-09-02T03:45:31.875Z,0.00
2022-09-02T03:48:04.287Z,0.10
2022-09-02T03:50:40.650Z,0.00
2022-09-02T03:53:14.865Z,0.08
2022-09-02T03:55:50.777Z,0.00
2022-09-02T03:58:20.180Z,0.00
2022-09-02T04:00:51.827Z,0.10
2022-09-02T04:03:21.701Z,0.05
2022-09-02T04:05:50.884Z,0.00
2022-09-02T04:08:19.769Z,0.00
2022-09-02T04:10:47.429Z,0.10
2022-09-02T04:13:14.349Z,0.10
2022-09-02T04:15:43.381Z,0.00
2022-09-02T04:18:14.917Z,0.00
2022-09-02T04:20:42.694Z,0.10
2022-09-02T04:23:09.861Z,0.10
2022-09-02T04:25:42.779Z,0.10
2022-09-02T04:28:11.380Z,0.00
2022-09-02T04:30:42.884Z,0.10
2022-09-02T04:33:11.583Z,0.10
2022-09-02T04:35:41.555Z,0.10
2022-09-02T04:38:10.267Z,0.03
2022-09-02T04:40:44.988Z,0.10
2022-09-02T04:43:13.639Z,0.10
2022-09-02T04:45:45.730Z,0.10
2022-09-02T04:48:15.694Z,0.10
2022-09-02T04:50:43.874Z,0.20
2022-09-02T04:53:12.243Z,0.10
2022-09-02T04:55:42.075Z,0.10
2022-09-02T04:58:11.566Z,0.10
2022-09-02T05:00:39.967Z,0.15
2022-09-02T05:03:10.485Z,0.10
2022-09-02T05:05:38.044Z,0.05
2022-09-02T05:08:05.679Z,0.30
2022-09-02T05:10:33.184Z,0.25
2022-09-02T05:13:00.557Z,0.00
2022-09-02T05:15:28.963Z,0.10
2022-09-02T05:17:55.871Z,0.30
2022-09-02T05:20:22.756Z,0.10
2022-09-02T05:22:50.573Z,0.10
2022-09-02T05:25:17.920Z,0.10
2022-09-02T05:27:46.267Z,0.00
2022-09-02T05:30:13.279Z,0.10
2022-09-02T05:32:41.039Z,0.13
2022-09-02T05:35:09.238Z,0.08
2022-09-02T05:37:36.759Z,0.10
2022-09-02T05:40:06.096Z,0.00
2022-09-02T05:42:37.051Z,0.10
2022-09-02T05:45:06.009Z,0.10
2022-09-02T05:47:36.514Z,0.10
2022-09-02T05:50:05.161Z,0.10
2022-09-02T05:52:36.211Z,0.10
2022-09-02T05:55:04.633Z,0.10
2022-09-02T05:57:35.539Z,0.10
2022-09-02T06:00:07.385Z,0.10
2022-09-02T06:02:45.649Z,0.13
2022-09-02T06:05:27.937Z,0.10
2022-09-02T06:08:04.622Z,0.10
2022-09-02T06:10:31.534Z,0.10
2022-09-02T06:12:58.384Z,0.10
2022-09-02T06:15:27.997Z,0.10
2022-09-02T06:17:55.615Z,0.05
2022-09-02T06:20:22.443Z,0.00
2022-09-02T06:22:49.284Z,0.10
2022-09-02T06:25:17.456Z,0.10
2022-09-02T06:27:44.264Z,0.10
2022-09-02T06:30:12.438Z,0.10
2022-09-02T06:32:41.059Z,0.37
2022-09-02T06:35:10.494Z,0.10
2022-09-02T06:37:38.544Z,0.20
2022-09-02T06:40:06.208Z,0.10
2022-09-02T06:42:33.636Z,0.13
2022-09-02T06:45:13.268Z,0.10
2022-09-02T06:47:40.805Z,0.10
2022-09-02T06:50:08.765Z,0.10
2022-09-02T06:52:35.851Z,0.10
2022-09-02T06:55:03.949Z,0.25
2022-09-02T06:57:34.207Z,0.10
2022-09-02T07:00:09.981Z,0.10
2022-09-02T07:02:38.041Z,0.08
2022-09-02T07:05:05.683Z,0.10
2022-09-02T07:07:35.701Z,0.10
2022-09-02T07:10:10.160Z,0.20
2022-09-02T07:12:40.871Z,0.10
2022-09-02T07:15:14.931Z,0.20
2022-09-02T07:17:43.198Z,0.10
2022-09-02T07:20:23.623Z,0.10
2022-09-02T07:22:58.057Z,0.10
2022-09-02T07:25:27.473Z,0.10
2022-09-02T07:27:54.375Z,0.10
2022-09-02T07:30:21.344Z,0.10
2022-09-02T07:32:52.873Z,0.17
2022-09-02T07:35:23.346Z,0.10
2022-09-02T07:37:51.041Z,0.10
2022-09-02T07:40:19.433Z,0.10
2022-09-02T07:42:47.556Z,0.10
2022-09-02T07:45:14.993Z,0.00
2022-09-02T07:47:44.066Z,0.10
2022-09-02T07:50:23.492Z,0.10
2022-09-02T07:52:54.248Z,0.10
2022-09-02T07:55:23.928Z,0.10
2022-09-02T07:57:52.590Z,0.20
2022-09-02T08:00:20.944Z,0.10
2022-09-02T08:02:50.338Z,0.10
2022-09-02T08:05:23.858Z,0.10
2022-09-02T08:07:50.654Z,0.08
2022-09-02T08:10:17.851Z,0.00
2022-09-02T08:12:45.080Z,0.10
2022-09-02T08:15:12.373Z,0.10
2022-09-02T08:17:39.977Z,0.03
2022-09-02T08:20:12.533Z,0.10
2022-09-02T08:22:40.183Z,0.00
2022-09-02T08:25:08.027Z,0.10
2022-09-02T08:27:36.158Z,0.20
2022-09-02T08:30:06.772Z,0.10
2022-09-02T08:32:33.718Z,0.10
2022-09-02T08:35:00.479Z,0.20
2022-09-02T08:37:27.555Z,0.15
2022-09-02T08:39:54.349Z,0.10
2022-09-02T08:42:48.330Z,0.10
2022-09-02T08:45:21.004Z,0.10
2022-09-02T08:47:55.330Z,0.10
2022-09-02T08:50:23.131Z,0.10
2022-09-02T08:53:07.261Z,0.10
2022-09-02T08:55:44.544Z,0.17
2022-09-02T08:58:17.963Z,0.10
2022-09-02T09:00:50.788Z,0.10
2022-09-02T09:03:30.636Z,0.10
2022-09-02T09:06:14.981Z,0.10
2022-09-02T09:09:01.688Z,0.10
2022-09-02T09:11:51.124Z,0.00
2022-09-02T09:14:23.408Z,0.20
2022-09-02T09:16:52.868Z,0.03
2022-09-02T09:19:52.617Z,0.10
2022-09-02T09:22:26.255Z,0.08
2022-09-02T09:24:53.040Z,0.00
2022-09-02T09:27:21.779Z,0.10
2022-09-02T09:29:49.996Z,0.10
2022-09-02T09:32:40.757Z,0.10
2022-09-02T09:35:13.607Z,0.13
2022-09-02T09:37:48.518Z,0.00
2022-09-02T09:40:24.429Z,0.10
2022-09-02T09:43:03.979Z,0.10
2022-09-02T09:45:33.562Z,0.10
2022-09-02T09:48:21.744Z,0.00
2022-09-02T09:50:55.903Z,0.00
2022-09-02T09:53:28.203Z,0.00
2022-09-02T09:55:57.241Z,0.10
2022-09-02T09:58:39.743Z,0.10
2022-09-02T10:01:15.795Z,0.10
2022-09-02T10:07:00.053Z,0.10
2022-09-02T10:09:36.001Z,0.30
2022-09-02T10:12:06.184Z,0.13
2022-09-02T10:14:40.148Z,0.10
2022-09-02T10:17:36.854Z,0.10
2022-09-02T10:20:31.045Z,0.00
2022-09-02T10:23:22.677Z,0.10
2022-09-02T10:29:30.471Z,0.10
2022-09-02T10:32:12.920Z,0.10
2022-09-02T10:35:01.442Z,0.00
2022-09-02T10:37:43.242Z,0.00
2022-09-02T10:40:16.838Z,0.00
2022-09-02T10:43:05.688Z,0.00
2022-09-02T10:45:38.529Z,0.00
2022-09-02T10:48:28.400Z,0.10
2022-09-02T10:51:15.399Z,0.10
2022-09-02T10:54:00.920Z,0.10
2022-09-02T10:56:36.254Z,0.20
2022-09-02T10:59:18.496Z,0.10
2022-09-02T11:02:17.626Z,0.00
2022-09-02T11:04:49.777Z,0.00
2022-09-02T11:07:33.635Z,0.00
2022-09-02T11:10:08.496Z,0.00
2022-09-02T11:12:40.702Z,0.00
2022-09-02T11:15:20.038Z,0.10
2022-09-02T11:17:56.199Z,0.05
2022-09-02T11:20:40.558Z,0.00
2022-09-02T11:23:38.611Z,0.00
2022-09-02T11:26:11.669Z,0.10
2022-09-02T11:29:17.470Z,0.00
2022-09-02T11:31:52.284Z,0.10
2022-09-02T11:34:30.872Z,0.00
2022-09-02T11:36:57.681Z,0.10
2022-09-02T11:39:51.576Z,0.00
2022-09-02T11:43:05.241Z,0.20
2022-09-02T11:45:41.424Z,0.10
2022-09-02T11:48:33.084Z,0.10
2022-09-02T11:51:18.272Z,0.10
2022-09-02T11:53:46.801Z,0.10
2022-09-02T11:56:16.821Z,0.03
2022-09-02T11:58:52.038Z,0.05
2022-09-02T12:01:33.856Z,0.20
2022-09-02T12:04:48.632Z,0.00
2022-09-02T12:07:07.725Z,0.10
2022-09-02T12:09:55.697Z,0.20
2022-09-02T12:12:37.732Z,0.00
2022-09-02T12:15:04.498Z,0.10
2022-09-02T12:17:49.468Z,0.08
2022-09-02T12:20:37.981Z,0.10
2022-09-02T12:23:07.188Z,0.10
2022-09-02T12:25:36.410Z,0.10
2022-09-02T12:28:12.404Z,0.10
2022-09-02T12:30:55.364Z,0.03
2022-09-02T12:33:39.152Z,0.10
2022-09-02T12:36:09.418Z,0.00
2022-09-02T12:38:41.934Z,0.00
2022-09-02T12:41:18.110Z,0.00
2022-09-02T12:43:53.196Z,0.08
2022-09-02T12:46:38.203Z,0.00
2022-09-02T12:49:37.913Z,0.10
2022-09-02T12:52:10.295Z,0.03
2022-09-02T12:54:46.747Z,0.10
2022-09-02T12:57:13.736Z,0.10
2022-09-02T12:59:42.075Z,0.10
2022-09-02T13:02:20.667Z,0.20
2022-09-02T13:04:57.337Z,0.08
2022-09-02T13:07:36.596Z,0.10
2022-09-02T13:10:22.089Z,0.10
2022-09-02T13:13:13.877Z,0.10
2022-09-02T13:16:18.412Z,0.10
2022-09-02T13:19:04.262Z,0.10
2022-09-02T13:21:54.634Z,0.10
2022-09-02T13:24:58.985Z,0.20
2022-09-02T13:27:31.633Z,0.10
2022-09-02T13:30:20.673Z,0.10
2022-09-02T13:32:57.348Z,0.10
2022-09-02T13:35:27.235Z,0.10
2022-09-02T13:37:57.291Z,0.00
2022-09-02T13:40:33.179Z,0.08
2022-09-02T13:43:02.884Z,0.10
2022-09-02T13:45:36.256Z,0.10
2022-09-02T13:48:08.396Z,0.05
2022-09-02T13:50:42.808Z,0.10
2022-09-02T13:53:59.086Z,0.10
2022-09-02T13:56:08.413Z,0.10
2022-09-02T13:58:44.410Z,0.25
2022-09-02T14:01:38.523Z,0.10
2022-09-02T14:04:15.458Z,0.10
2022-09-02T14:06:46.404Z,0.10
2022-09-02T14:09:24.071Z,0.28
2022-09-02T14:11:52.611Z,0.10
2022-09-02T14:14:23.990Z,0.10
2022-09-02T14:16:51.254Z,0.10
2022-09-02T14:19:17.954Z,0.20
2022-09-02T14:21:53.993Z,0.20
2022-09-02T14:24:26.125Z,0.10
2022-09-02T14:27:00.538Z,0.10
2022-09-02T14:29:30.315Z,0.10
2022-09-02T14:32:28.101Z,0.00
2022-09-02T14:35:20.567Z,0.10
2022-09-02T14:37:50.242Z,0.13
2022-09-02T14:40:18.335Z,0.10
2022-09-02T14:42:56.608Z,0.10
2022-09-02T14:45:35.095Z,0.10
2022-09-02T14:48:10.792Z,0.10
2022-09-02T14:50:37.999Z,0.10
2022-09-02T14:53:08.019Z,0.10
2022-09-02T14:55:57.331Z,0.10
2022-09-02T14:58:27.532Z,0.17
2022-09-02T15:00:59.304Z,0.10
2022-09-02T15:03:27.192Z,0.10
2022-09-02T15:05:54.175Z,0.10
2022-09-02T15:08:21.235Z,0.00
2022-09-02T15:10:49.305Z,0.00
2022-09-02T15:13:27.153Z,0.08
2022-09-02T15:15:54.366Z,0.10
2022-09-02T15:18:22.268Z,0.10
2022-09-02T15:20:49.168Z,0.10
2022-09-02T15:23:16.877Z,0.10
2022-09-02T15:25:44.001Z,0.10
2022-09-02T15:28:11.077Z,0.17
2022-09-02T15:30:37.931Z,0.10
2022-09-02T15:33:09.168Z,0.00
2022-09-02T15:35:43.878Z,0.10
2022-09-02T15:38:10.619Z,0.00
2022-09-02T15:40:37.389Z,0.20
2022-09-02T15:43:04.119Z,0.08
2022-09-02T15:45:30.922Z,0.10
2022-09-02T15:47:58.733Z,0.10
2022-09-02T15:50:25.846Z,0.10
2022-09-02T15:52:55.152Z,0.10
2022-09-02T15:55:26.304Z,0.10
2022-09-02T15:57:56.422Z,0.00
2022-09-02T16:00:23.303Z,0.00
2022-09-02T16:02:54.657Z,0.05
2022-09-02T16:05:21.564Z,0.00
2022-09-02T16:07:48.244Z,0.03
2022-09-02T16:10:15.516Z,0.10
2022-09-02T16:12:42.229Z,0.10
2022-09-02T16:15:09.346Z,0.10
2022-09-02T16:17:36.216Z,0.10
2022-09-02T16:20:04.328Z,0.10
2022-09-02T16:22:31.056Z,0.10
2022-09-02T16:24:57.777Z,0.10
2022-09-02T16:27:24.499Z,0.10
2022-09-02T16:29:51.338Z,0.00
2022-09-02T16:32:27.592Z,0.10
2022-09-02T16:34:54.781Z,0.15
2022-09-02T16:37:21.628Z,0.10
2022-09-02T16:39:48.424Z,0.10
2022-09-02T16:42:15.139Z,0.10
2022-09-02T16:44:42.059Z,0.10
2022-09-02T16:47:08.825Z,0.10
2022-09-02T16:49:39.713Z,0.52
2022-09-02T16:52:06.460Z,0.40
2022-09-02T16:54:37.382Z,0.20
2022-09-02T16:57:07.005Z,0.08
2022-09-02T16:59:33.764Z,0.10
2022-09-02T17:02:00.601Z,0.10
2022-09-02T17:04:27.512Z,0.10
2022-09-02T17:06:56.695Z,0.13
2022-09-02T17:09:23.475Z,0.00
2022-09-02T17:11:50.249Z,0.20
2022-09-02T17:14:20.627Z,0.32
2022-09-02T17:16:50.319Z,0.47
2022-09-02T17:19:18.835Z,0.35
2022-09-02T17:21:47.709Z,0.60
2022-09-02T17:24:15.451Z,0.55
2022-09-02T17:26:44.128Z,0.85
2022-09-02T17:29:31.630Z,1.27
2022-09-02T17:32:00.760Z,1.40
2022-09-02T17:34:27.560Z,1.17
2022-09-02T17:36:54.841Z,0.93
2022-09-02T17:39:21.708Z,0.50
2022-09-02T17:41:48.468Z,0.60
2022-09-02T17:44:16.100Z,0.30
2022-09-02T17:46:44.218Z,0.32
2022-09-02T17:49:17.362Z,0.20
2022-09-02T17:51:44.916Z,0.20
2022-09-02T17:54:12.784Z,0.10
2022-09-02T17:57:17.175Z,0.30
2022-09-02T18:00:08.395Z,0.20
2022-09-02T18:02:36.715Z,0.20
2022-09-02T18:05:08.614Z,0.20
2022-09-02T18:08:09.728Z,0.10
2022-09-02T18:10:40.160Z,0.10
2022-09-02T18:13:11.296Z,0.52
2022-09-02T18:15:56.498Z,0.20
2022-09-02T18:18:23.475Z,0.40
2022-09-02T18:21:01.759Z,0.30
2022-09-02T18:23:59.915Z,0.30
2022-09-02T18:26:41.743Z,0.20
2022-09-02T18:29:45.859Z,0.20
2022-09-02T18:32:24.970Z,0.30
2022-09-02T18:35:04.088Z,0.28
2022-09-02T18:37:49.299Z,0.28
2022-09-02T18:40:28.141Z,0.47
2022-09-02T18:43:23.113Z,0.30
2022-09-02T18:45:53.072Z,0.38
